sensor_id;sensor_type;location;lat;lon;timestamp;P1;durP1;ratioP1;P2;durP2;ratioP2
42144;SDS011;27813;43.516;11.890;2024-03-08T00:02:29;9.23;;;5.47;;
42144;SDS011;27813;43.516;11.890;2024-03-08T00:06:33;10.55;;;5.18;;
42144;SDS011;27813;43.516;11.890;2024-03-08T00:10:37;8.90;;;4.63;;
42144;SDS011;27813;43.516;11.890;2024-03-08T00:14:42;9.15;;;5.43;;
42144;SDS011;27813;43.516;11.890;2024-03-08T00:18:50;17.55;;;10.27;;
42144;SDS011;27813;43.516;11.890;2024-03-08T00:22:55;10.88;;;5.97;;
42144;SDS011;27813;43.516;11.890;2024-03-08T00:27:01;8.32;;;4.78;;
42144;SDS011;27813;43.516;11.890;2024-03-08T00:31:08;7.25;;;4.93;;
42144;SDS011;27813;43.516;11.890;2024-03-08T00:35:12;10.50;;;5.63;;
42144;SDS011;27813;43.516;11.890;2024-03-08T00:39:17;8.63;;;4.83;;
42144;SDS011;27813;43.516;11.890;2024-03-08T00:43:23;10.02;;;5.20;;
42144;SDS011;27813;43.516;11.890;2024-03-08T00:47:27;10.57;;;6.00;;
42144;SDS011;27813;43.516;11.890;2024-03-08T00:51:34;9.77;;;5.45;;
42144;SDS011;27813;43.516;11.890;2024-03-08T00:55:40;8.43;;;5.35;;
42144;SDS011;27813;43.516;11.890;2024-03-08T00:59:44;9.93;;;5.65;;
42144;SDS011;27813;43.516;11.890;2024-03-08T01:03:49;10.95;;;6.38;;
42144;SDS011;27813;43.516;11.890;2024-03-08T01:07:54;10.35;;;6.10;;
42144;SDS011;27813;43.516;11.890;2024-03-08T01:11:59;10.10;;;5.63;;
42144;SDS011;27813;43.516;11.890;2024-03-08T01:16:04;8.68;;;5.47;;
42144;SDS011;27813;43.516;11.890;2024-03-08T01:24:17;9.55;;;5.43;;
42144;SDS011;27813;43.516;11.890;2024-03-08T01:28:25;7.20;;;4.78;;
42144;SDS011;27813;43.516;11.890;2024-03-08T01:32:29;11.05;;;5.50;;
42144;SDS011;27813;43.516;11.890;2024-03-08T01:36:34;10.27;;;6.03;;
42144;SDS011;27813;43.516;11.890;2024-03-08T01:40:40;9.80;;;5.72;;
42144;SDS011;27813;43.516;11.890;2024-03-08T01:44:45;6.78;;;4.82;;
42144;SDS011;27813;43.516;11.890;2024-03-08T01:48:49;7.82;;;4.55;;
42144;SDS011;27813;43.516;11.890;2024-03-08T01:52:54;9.43;;;6.05;;
42144;SDS011;27813;43.516;11.890;2024-03-08T01:57:03;11.77;;;5.43;;
42144;SDS011;27813;43.516;11.890;2024-03-08T02:01:09;12.50;;;5.85;;
42144;SDS011;27813;43.516;11.890;2024-03-08T02:05:18;11.27;;;5.95;;
42144;SDS011;27813;43.516;11.890;2024-03-08T02:09:23;13.55;;;6.05;;
42144;SDS011;27813;43.516;11.890;2024-03-08T02:13:30;8.75;;;5.47;;
42144;SDS011;27813;43.516;11.890;2024-03-08T02:17:34;9.85;;;5.55;;
42144;SDS011;27813;43.516;11.890;2024-03-08T02:21:40;9.40;;;5.30;;
42144;SDS011;27813;43.516;11.890;2024-03-08T02:25:44;12.98;;;6.65;;
42144;SDS011;27813;43.516;11.890;2024-03-08T02:29:49;11.73;;;5.80;;
42144;SDS011;27813;43.516;11.890;2024-03-08T02:34:04;10.93;;;6.63;;
42144;SDS011;27813;43.516;11.890;2024-03-08T02:38:10;12.68;;;6.50;;
42144;SDS011;27813;43.516;11.890;2024-03-08T02:42:15;11.85;;;6.68;;
42144;SDS011;27813;43.516;11.890;2024-03-08T02:46:24;11.40;;;6.80;;
42144;SDS011;27813;43.516;11.890;2024-03-08T02:50:28;11.80;;;6.13;;
42144;SDS011;27813;43.516;11.890;2024-03-08T02:54:32;9.63;;;5.78;;
42144;SDS011;27813;43.516;11.890;2024-03-08T02:58:39;9.27;;;5.18;;
42144;SDS011;27813;43.516;11.890;2024-03-08T03:02:47;10.00;;;5.40;;
42144;SDS011;27813;43.516;11.890;2024-03-08T03:06:51;9.15;;;5.30;;
42144;SDS011;27813;43.516;11.890;2024-03-08T03:10:55;8.50;;;4.80;;
42144;SDS011;27813;43.516;11.890;2024-03-08T03:14:59;7.32;;;4.97;;
42144;SDS011;27813;43.516;11.890;2024-03-08T03:23:08;9.73;;;5.00;;
42144;SDS011;27813;43.516;11.890;2024-03-08T03:27:18;9.52;;;5.25;;
42144;SDS011;27813;43.516;11.890;2024-03-08T03:31:23;7.28;;;4.30;;
42144;SDS011;27813;43.516;11.890;2024-03-08T03:35:28;6.38;;;4.13;;
42144;SDS011;27813;43.516;11.890;2024-03-08T03:39:32;9.35;;;4.72;;
42144;SDS011;27813;43.516;11.890;2024-03-08T03:43:37;10.20;;;4.90;;
42144;SDS011;27813;43.516;11.890;2024-03-08T03:47:42;9.88;;;5.07;;
42144;SDS011;27813;43.516;11.890;2024-03-08T03:55:50;8.10;;;4.88;;
42144;SDS011;27813;43.516;11.890;2024-03-08T03:59:54;11.35;;;5.38;;
42144;SDS011;27813;43.516;11.890;2024-03-08T04:03:58;8.60;;;4.95;;
42144;SDS011;27813;43.516;11.890;2024-03-08T04:08:01;8.63;;;4.68;;
42144;SDS011;27813;43.516;11.890;2024-03-08T04:12:07;9.85;;;4.88;;
42144;SDS011;27813;43.516;11.890;2024-03-08T04:16:12;6.47;;;4.03;;
42144;SDS011;27813;43.516;11.890;2024-03-08T04:20:16;7.68;;;4.35;;
42144;SDS011;27813;43.516;11.890;2024-03-08T04:24:20;8.40;;;4.97;;
42144;SDS011;27813;43.516;11.890;2024-03-08T04:28:24;11.07;;;5.50;;
42144;SDS011;27813;43.516;11.890;2024-03-08T04:32:29;11.40;;;5.20;;
42144;SDS011;27813;43.516;11.890;2024-03-08T04:36:36;10.52;;;5.50;;
42144;SDS011;27813;43.516;11.890;2024-03-08T04:40:40;8.30;;;4.38;;
42144;SDS011;27813;43.516;11.890;2024-03-08T04:44:43;9.43;;;5.68;;
42144;SDS011;27813;43.516;11.890;2024-03-08T04:48:51;10.25;;;5.53;;
42144;SDS011;27813;43.516;11.890;2024-03-08T04:52:55;11.87;;;5.90;;
42144;SDS011;27813;43.516;11.890;2024-03-08T04:56:59;11.60;;;5.83;;
42144;SDS011;27813;43.516;11.890;2024-03-08T05:01:05;11.43;;;5.72;;
42144;SDS011;27813;43.516;11.890;2024-03-08T05:05:09;9.25;;;5.53;;
42144;SDS011;27813;43.516;11.890;2024-03-08T05:09:16;9.15;;;5.18;;
42144;SDS011;27813;43.516;11.890;2024-03-08T05:13:22;9.75;;;4.95;;
42144;SDS011;27813;43.516;11.890;2024-03-08T05:17:26;8.63;;;4.90;;
42144;SDS011;27813;43.516;11.890;2024-03-08T05:25:34;12.07;;;5.05;;
42144;SDS011;27813;43.516;11.890;2024-03-08T05:29:39;7.68;;;4.68;;
42144;SDS011;27813;43.516;11.890;2024-03-08T05:33:43;9.30;;;4.97;;
42144;SDS011;27813;43.516;11.890;2024-03-08T05:37:47;7.67;;;4.30;;
42144;SDS011;27813;43.516;11.890;2024-03-08T05:41:51;8.93;;;4.43;;
42144;SDS011;27813;43.516;11.890;2024-03-08T05:45:55;8.30;;;4.93;;
42144;SDS011;27813;43.516;11.890;2024-03-08T05:49:59;7.30;;;4.82;;
42144;SDS011;27813;43.516;11.890;2024-03-08T05:54:03;9.37;;;5.00;;
42144;SDS011;27813;43.516;11.890;2024-03-08T05:58:14;10.35;;;5.13;;
42144;SDS011;27813;43.516;11.890;2024-03-08T06:02:18;8.43;;;4.80;;
42144;SDS011;27813;43.516;11.890;2024-03-08T06:06:23;8.35;;;4.45;;
42144;SDS011;27813;43.516;11.890;2024-03-08T06:14:32;10.82;;;5.22;;
42144;SDS011;27813;43.516;11.890;2024-03-08T06:18:36;14.20;;;7.10;;
42144;SDS011;27813;43.516;11.890;2024-03-08T06:22:41;12.70;;;6.70;;
42144;SDS011;27813;43.516;11.890;2024-03-08T06:26:45;15.25;;;7.28;;
42144;SDS011;27813;43.516;11.890;2024-03-08T06:30:49;16.80;;;7.67;;
42144;SDS011;27813;43.516;11.890;2024-03-08T06:34:54;17.52;;;8.43;;
42144;SDS011;27813;43.516;11.890;2024-03-08T06:38:59;17.13;;;8.68;;
42144;SDS011;27813;43.516;11.890;2024-03-08T06:43:02;13.65;;;7.57;;
42144;SDS011;27813;43.516;11.890;2024-03-08T06:47:09;14.00;;;7.97;;
42144;SDS011;27813;43.516;11.890;2024-03-08T06:51:13;12.95;;;7.95;;
42144;SDS011;27813;43.516;11.890;2024-03-08T06:55:21;11.13;;;6.90;;
42144;SDS011;27813;43.516;11.890;2024-03-08T06:59:25;13.82;;;7.75;;
42144;SDS011;27813;43.516;11.890;2024-03-08T07:03:30;15.48;;;7.55;;
42144;SDS011;27813;43.516;11.890;2024-03-08T07:07:37;14.18;;;8.20;;
42144;SDS011;27813;43.516;11.890;2024-03-08T07:11:41;14.05;;;8.10;;
42144;SDS011;27813;43.516;11.890;2024-03-08T07:15:47;15.95;;;7.93;;
42144;SDS011;27813;43.516;11.890;2024-03-08T07:19:51;20.17;;;8.55;;
42144;SDS011;27813;43.516;11.890;2024-03-08T07:23:57;17.98;;;9.57;;
42144;SDS011;27813;43.516;11.890;2024-03-08T07:28:01;22.90;;;10.87;;
42144;SDS011;27813;43.516;11.890;2024-03-08T07:32:06;25.98;;;11.52;;
42144;SDS011;27813;43.516;11.890;2024-03-08T07:36:25;22.88;;;11.10;;
42144;SDS011;27813;43.516;11.890;2024-03-08T07:40:29;22.35;;;11.48;;
42144;SDS011;27813;43.516;11.890;2024-03-08T07:44:33;24.92;;;12.23;;
42144;SDS011;27813;43.516;11.890;2024-03-08T07:48:37;26.02;;;11.57;;
42144;SDS011;27813;43.516;11.890;2024-03-08T07:52:43;23.60;;;12.00;;
42144;SDS011;27813;43.516;11.890;2024-03-08T07:56:47;22.45;;;12.18;;
42144;SDS011;27813;43.516;11.890;2024-03-08T08:00:51;24.37;;;11.50;;
42144;SDS011;27813;43.516;11.890;2024-03-08T08:04:55;23.13;;;12.30;;
42144;SDS011;27813;43.516;11.890;2024-03-08T08:09:02;25.60;;;12.55;;
42144;SDS011;27813;43.516;11.890;2024-03-08T08:13:06;22.20;;;12.13;;
42144;SDS011;27813;43.516;11.890;2024-03-08T08:17:11;24.95;;;12.60;;
42144;SDS011;27813;43.516;11.890;2024-03-08T08:21:15;23.13;;;12.18;;
42144;SDS011;27813;43.516;11.890;2024-03-08T08:25:21;25.80;;;11.90;;
42144;SDS011;27813;43.516;11.890;2024-03-08T08:29:27;23.90;;;12.30;;
42144;SDS011;27813;43.516;11.890;2024-03-08T08:33:32;28.23;;;14.07;;
42144;SDS011;27813;43.516;11.890;2024-03-08T08:37:39;25.90;;;12.55;;
42144;SDS011;27813;43.516;11.890;2024-03-08T08:45:47;24.73;;;13.80;;
42144;SDS011;27813;43.516;11.890;2024-03-08T08:49:53;26.90;;;14.75;;
42144;SDS011;27813;43.516;11.890;2024-03-08T08:53:57;30.05;;;15.30;;
42144;SDS011;27813;43.516;11.890;2024-03-08T08:58:01;30.80;;;16.43;;
42144;SDS011;27813;43.516;11.890;2024-03-08T09:02:06;34.28;;;17.58;;
42144;SDS011;27813;43.516;11.890;2024-03-08T09:06:15;34.10;;;16.58;;
42144;SDS011;27813;43.516;11.890;2024-03-08T09:10:22;29.73;;;16.55;;
42144;SDS011;27813;43.516;11.890;2024-03-08T09:14:32;33.15;;;16.45;;
42144;SDS011;27813;43.516;11.890;2024-03-08T09:18:37;39.88;;;19.00;;
42144;SDS011;27813;43.516;11.890;2024-03-08T09:22:44;35.55;;;19.08;;
42144;SDS011;27813;43.516;11.890;2024-03-08T09:26:49;36.88;;;19.42;;
42144;SDS011;27813;43.516;11.890;2024-03-08T09:30:53;44.80;;;23.15;;
42144;SDS011;27813;43.516;11.890;2024-03-08T09:35:02;34.33;;;18.13;;
42144;SDS011;27813;43.516;11.890;2024-03-08T09:39:06;41.33;;;19.85;;
42144;SDS011;27813;43.516;11.890;2024-03-08T09:43:10;40.35;;;20.30;;
42144;SDS011;27813;43.516;11.890;2024-03-08T09:47:15;33.88;;;18.13;;
42144;SDS011;27813;43.516;11.890;2024-03-08T09:51:24;34.00;;;16.27;;
42144;SDS011;27813;43.516;11.890;2024-03-08T09:55:31;27.00;;;14.93;;
42144;SDS011;27813;43.516;11.890;2024-03-08T09:59:38;31.50;;;15.30;;
42144;SDS011;27813;43.516;11.890;2024-03-08T10:03:42;29.80;;;15.98;;
42144;SDS011;27813;43.516;11.890;2024-03-08T10:07:46;30.95;;;17.10;;
42144;SDS011;27813;43.516;11.890;2024-03-08T10:11:53;32.30;;;14.65;;
42144;SDS011;27813;43.516;11.890;2024-03-08T10:16:00;27.27;;;14.77;;
42144;SDS011;27813;43.516;11.890;2024-03-08T10:20:04;26.25;;;15.85;;
42144;SDS011;27813;43.516;11.890;2024-03-08T10:24:20;26.80;;;15.48;;
42144;SDS011;27813;43.516;11.890;2024-03-08T10:28:27;23.25;;;12.57;;
42144;SDS011;27813;43.516;11.890;2024-03-08T10:32:32;24.48;;;14.52;;
42144;SDS011;27813;43.516;11.890;2024-03-08T10:36:36;20.88;;;13.05;;
42144;SDS011;27813;43.516;11.890;2024-03-08T10:40:42;21.05;;;11.90;;
42144;SDS011;27813;43.516;11.890;2024-03-08T10:44:49;22.90;;;12.50;;
42144;SDS011;27813;43.516;11.890;2024-03-08T10:49:03;18.92;;;11.75;;
42144;SDS011;27813;43.516;11.890;2024-03-08T10:53:13;16.95;;;10.55;;
42144;SDS011;27813;43.516;11.890;2024-03-08T10:57:19;17.48;;;9.35;;
42144;SDS011;27813;43.516;11.890;2024-03-08T11:01:27;15.27;;;10.02;;
42144;SDS011;27813;43.516;11.890;2024-03-08T11:05:40;13.70;;;9.00;;
42144;SDS011;27813;43.516;11.890;2024-03-08T11:09:49;14.63;;;8.38;;
42144;SDS011;27813;43.516;11.890;2024-03-08T11:13:53;15.05;;;9.18;;
42144;SDS011;27813;43.516;11.890;2024-03-08T11:17:58;9.38;;;7.00;;
42144;SDS011;27813;43.516;11.890;2024-03-08T11:22:13;14.13;;;8.20;;
42144;SDS011;27813;43.516;11.890;2024-03-08T11:26:33;12.60;;;8.82;;
42144;SDS011;27813;43.516;11.890;2024-03-08T11:30:43;11.13;;;7.47;;
42144;SDS011;27813;43.516;11.890;2024-03-08T11:34:50;14.73;;;8.70;;
42144;SDS011;27813;43.516;11.890;2024-03-08T11:38:56;9.82;;;7.03;;
42144;SDS011;27813;43.516;11.890;2024-03-08T11:43:05;9.95;;;7.00;;
42144;SDS011;27813;43.516;11.890;2024-03-08T11:47:14;9.73;;;6.90;;
42144;SDS011;27813;43.516;11.890;2024-03-08T11:51:24;10.50;;;6.75;;
42144;SDS011;27813;43.516;11.890;2024-03-08T11:55:31;12.75;;;8.10;;
42144;SDS011;27813;43.516;11.890;2024-03-08T11:59:44;10.85;;;5.57;;
42144;SDS011;27813;43.516;11.890;2024-03-08T12:04:01;7.97;;;5.30;;
42144;SDS011;27813;43.516;11.890;2024-03-08T12:08:13;6.53;;;4.72;;
42144;SDS011;27813;43.516;11.890;2024-03-08T12:12:24;7.00;;;4.28;;
42144;SDS011;27813;43.516;11.890;2024-03-08T12:16:38;5.68;;;3.17;;
42144;SDS011;27813;43.516;11.890;2024-03-08T12:20:45;6.13;;;3.45;;
42144;SDS011;27813;43.516;11.890;2024-03-08T12:25:13;6.63;;;3.85;;
42144;SDS011;27813;43.516;11.890;2024-03-08T12:29:26;5.45;;;2.92;;
42144;SDS011;27813;43.516;11.890;2024-03-08T12:33:56;4.03;;;2.05;;
42144;SDS011;27813;43.516;11.890;2024-03-08T12:38:04;2.92;;;1.80;;
42144;SDS011;27813;43.516;11.890;2024-03-08T12:42:16;3.38;;;2.05;;
42144;SDS011;27813;43.516;11.890;2024-03-08T12:46:27;2.42;;;1.55;;
42144;SDS011;27813;43.516;11.890;2024-03-08T12:50:36;4.18;;;2.08;;
42144;SDS011;27813;43.516;11.890;2024-03-08T12:54:43;3.03;;;1.63;;
42144;SDS011;27813;43.516;11.890;2024-03-08T12:58:51;4.03;;;1.92;;
42144;SDS011;27813;43.516;11.890;2024-03-08T13:02:56;2.22;;;1.33;;
42144;SDS011;27813;43.516;11.890;2024-03-08T13:07:00;3.28;;;1.85;;
42144;SDS011;27813;43.516;11.890;2024-03-08T13:15:11;7.05;;;1.73;;
42144;SDS011;27813;43.516;11.890;2024-03-08T13:19:24;2.40;;;1.23;;
42144;SDS011;27813;43.516;11.890;2024-03-08T13:23:31;2.88;;;1.40;;
42144;SDS011;27813;43.516;11.890;2024-03-08T13:27:36;3.70;;;1.30;;
42144;SDS011;27813;43.516;11.890;2024-03-08T13:31:40;3.03;;;1.45;;
42144;SDS011;27813;43.516;11.890;2024-03-08T13:35:44;2.78;;;1.70;;
42144;SDS011;27813;43.516;11.890;2024-03-08T13:39:53;2.85;;;2.00;;
42144;SDS011;27813;43.516;11.890;2024-03-08T13:44:29;5.68;;;3.33;;
42144;SDS011;27813;43.516;11.890;2024-03-08T13:48:33;3.70;;;2.40;;
42144;SDS011;27813;43.516;11.890;2024-03-08T13:52:38;7.20;;;4.53;;
42144;SDS011;27813;43.516;11.890;2024-03-08T13:56:43;5.30;;;3.10;;
42144;SDS011;27813;43.516;11.890;2024-03-08T14:00:48;5.20;;;2.80;;
42144;SDS011;27813;43.516;11.890;2024-03-08T14:04:52;5.50;;;2.38;;
42144;SDS011;27813;43.516;11.890;2024-03-08T14:13:01;4.60;;;2.60;;
42144;SDS011;27813;43.516;11.890;2024-03-08T14:17:07;4.28;;;2.65;;
42144;SDS011;27813;43.516;11.890;2024-03-08T14:21:14;5.43;;;2.90;;
42144;SDS011;27813;43.516;11.890;2024-03-08T14:25:21;4.10;;;2.20;;
42144;SDS011;27813;43.516;11.890;2024-03-08T14:29:28;4.10;;;2.88;;
42144;SDS011;27813;43.516;11.890;2024-03-08T14:33:38;7.38;;;3.63;;
42144;SDS011;27813;43.516;11.890;2024-03-08T14:37:46;6.25;;;3.05;;
42144;SDS011;27813;43.516;11.890;2024-03-08T14:45:57;4.10;;;2.45;;
42144;SDS011;27813;43.516;11.890;2024-03-08T14:50:01;3.90;;;2.15;;
42144;SDS011;27813;43.516;11.890;2024-03-08T14:58:09;5.07;;;3.20;;
42144;SDS011;27813;43.516;11.890;2024-03-08T15:02:17;4.03;;;2.63;;
42144;SDS011;27813;43.516;11.890;2024-03-08T15:06:23;4.88;;;2.63;;
42144;SDS011;27813;43.516;11.890;2024-03-08T15:10:29;5.40;;;2.83;;
42144;SDS011;27813;43.516;11.890;2024-03-08T15:14:53;3.67;;;2.03;;
42144;SDS011;27813;43.516;11.890;2024-03-08T15:19:03;3.60;;;1.92;;
42144;SDS011;27813;43.516;11.890;2024-03-08T15:23:10;7.63;;;4.03;;
42144;SDS011;27813;43.516;11.890;2024-03-08T15:27:18;7.72;;;4.55;;
42144;SDS011;27813;43.516;11.890;2024-03-08T15:31:25;12.73;;;6.07;;
42144;SDS011;27813;43.516;11.890;2024-03-08T15:35:31;6.65;;;4.13;;
42144;SDS011;27813;43.516;11.890;2024-03-08T15:39:38;6.75;;;4.05;;
42144;SDS011;27813;43.516;11.890;2024-03-08T15:43:43;5.65;;;3.58;;
42144;SDS011;27813;43.516;11.890;2024-03-08T15:47:51;7.05;;;3.75;;
42144;SDS011;27813;43.516;11.890;2024-03-08T15:51:56;6.63;;;3.50;;
42144;SDS011;27813;43.516;11.890;2024-03-08T15:56:02;5.53;;;3.28;;
42144;SDS011;27813;43.516;11.890;2024-03-08T16:00:12;8.43;;;4.47;;
42144;SDS011;27813;43.516;11.890;2024-03-08T16:04:25;9.00;;;5.90;;
42144;SDS011;27813;43.516;11.890;2024-03-08T16:08:32;13.00;;;7.53;;
42144;SDS011;27813;43.516;11.890;2024-03-08T16:12:45;10.63;;;5.78;;
42144;SDS011;27813;43.516;11.890;2024-03-08T16:16:52;9.02;;;4.85;;
42144;SDS011;27813;43.516;11.890;2024-03-08T16:20:58;10.85;;;3.92;;
42144;SDS011;27813;43.516;11.890;2024-03-08T16:25:03;5.05;;;3.35;;
42144;SDS011;27813;43.516;11.890;2024-03-08T16:29:14;5.95;;;2.80;;
42144;SDS011;27813;43.516;11.890;2024-03-08T16:33:24;4.78;;;2.72;;
42144;SDS011;27813;43.516;11.890;2024-03-08T16:37:30;4.47;;;3.00;;
42144;SDS011;27813;43.516;11.890;2024-03-08T16:41:34;24.40;;;12.95;;
42144;SDS011;27813;43.516;11.890;2024-03-08T16:45:38;61.45;;;31.88;;
42144;SDS011;27813;43.516;11.890;2024-03-08T16:49:44;184.20;;;95.40;;
42144;SDS011;27813;43.516;11.890;2024-03-08T16:53:48;122.60;;;66.40;;
42144;SDS011;27813;43.516;11.890;2024-03-08T16:57:53;107.15;;;58.45;;
42144;SDS011;27813;43.516;11.890;2024-03-08T17:01:57;70.93;;;37.38;;
42144;SDS011;27813;43.516;11.890;2024-03-08T17:06:05;46.45;;;26.75;;
42144;SDS011;27813;43.516;11.890;2024-03-08T17:10:09;50.45;;;24.42;;
42144;SDS011;27813;43.516;11.890;2024-03-08T17:14:18;177.90;;;82.53;;
42144;SDS011;27813;43.516;11.890;2024-03-08T17:18:23;127.82;;;62.20;;
42144;SDS011;27813;43.516;11.890;2024-03-08T17:22:30;157.15;;;83.15;;
42144;SDS011;27813;43.516;11.890;2024-03-08T17:30:39;195.68;;;89.60;;
42144;SDS011;27813;43.516;11.890;2024-03-08T17:34:47;132.93;;;61.20;;
42144;SDS011;27813;43.516;11.890;2024-03-08T17:38:52;56.67;;;26.55;;
42144;SDS011;27813;43.516;11.890;2024-03-08T17:42:58;38.60;;;19.88;;
42144;SDS011;27813;43.516;11.890;2024-03-08T17:47:10;16.83;;;9.68;;
42144;SDS011;27813;43.516;11.890;2024-03-08T17:51:14;15.05;;;9.02;;
42144;SDS011;27813;43.516;11.890;2024-03-08T17:55:19;16.92;;;9.48;;
42144;SDS011;27813;43.516;11.890;2024-03-08T17:59:30;8.75;;;6.10;;
42144;SDS011;27813;43.516;11.890;2024-03-08T18:03:35;35.17;;;17.13;;
42144;SDS011;27813;43.516;11.890;2024-03-08T18:07:45;34.85;;;16.17;;
42144;SDS011;27813;43.516;11.890;2024-03-08T18:11:51;24.30;;;11.82;;
42144;SDS011;27813;43.516;11.890;2024-03-08T18:15:55;9.95;;;6.35;;
42144;SDS011;27813;43.516;11.890;2024-03-08T18:20:05;11.73;;;7.03;;
42144;SDS011;27813;43.516;11.890;2024-03-08T18:24:19;11.68;;;7.45;;
42144;SDS011;27813;43.516;11.890;2024-03-08T18:28:25;9.52;;;6.57;;
42144;SDS011;27813;43.516;11.890;2024-03-08T18:32:31;9.13;;;5.25;;
42144;SDS011;27813;43.516;11.890;2024-03-08T18:36:36;5.85;;;4.22;;
42144;SDS011;27813;43.516;11.890;2024-03-08T18:40:41;6.78;;;3.78;;
42144;SDS011;27813;43.516;11.890;2024-03-08T18:44:48;9.00;;;3.70;;
42144;SDS011;27813;43.516;11.890;2024-03-08T18:48:55;8.63;;;4.53;;
42144;SDS011;27813;43.516;11.890;2024-03-08T18:53:01;7.85;;;4.85;;
42144;SDS011;27813;43.516;11.890;2024-03-08T18:57:12;5.20;;;3.50;;
42144;SDS011;27813;43.516;11.890;2024-03-08T19:01:16;5.47;;;3.78;;
42144;SDS011;27813;43.516;11.890;2024-03-08T19:05:28;23.65;;;14.43;;
42144;SDS011;27813;43.516;11.890;2024-03-08T19:09:37;10.35;;;5.05;;
42144;SDS011;27813;43.516;11.890;2024-03-08T19:13:43;4.50;;;3.83;;
42144;SDS011;27813;43.516;11.890;2024-03-08T19:17:48;8.38;;;6.28;;
42144;SDS011;27813;43.516;11.890;2024-03-08T19:21:53;7.32;;;4.68;;
42144;SDS011;27813;43.516;11.890;2024-03-08T19:25:58;7.97;;;5.32;;
42144;SDS011;27813;43.516;11.890;2024-03-08T19:30:03;6.80;;;4.85;;
42144;SDS011;27813;43.516;11.890;2024-03-08T19:34:08;9.82;;;6.80;;
42144;SDS011;27813;43.516;11.890;2024-03-08T19:38:12;8.60;;;5.78;;
42144;SDS011;27813;43.516;11.890;2024-03-08T19:42:19;6.90;;;4.25;;
42144;SDS011;27813;43.516;11.890;2024-03-08T19:46:24;11.70;;;6.82;;
42144;SDS011;27813;43.516;11.890;2024-03-08T19:50:34;12.30;;;5.90;;
42144;SDS011;27813;43.516;11.890;2024-03-08T19:54:51;6.55;;;4.88;;
42144;SDS011;27813;43.516;11.890;2024-03-08T19:59:05;7.95;;;6.00;;
42144;SDS011;27813;43.516;11.890;2024-03-08T20:03:20;4.57;;;4.13;;
42144;SDS011;27813;43.516;11.890;2024-03-08T20:07:27;8.48;;;5.10;;
42144;SDS011;27813;43.516;11.890;2024-03-08T20:11:46;7.22;;;4.10;;
42144;SDS011;27813;43.516;11.890;2024-03-08T20:15:56;9.05;;;4.43;;
42144;SDS011;27813;43.516;11.890;2024-03-08T20:20:08;4.60;;;3.80;;
42144;SDS011;27813;43.516;11.890;2024-03-08T20:24:27;10.75;;;4.35;;
42144;SDS011;27813;43.516;11.890;2024-03-08T20:28:33;8.35;;;5.28;;
42144;SDS011;27813;43.516;11.890;2024-03-08T20:32:40;8.13;;;6.20;;
42144;SDS011;27813;43.516;11.890;2024-03-08T20:36:44;8.68;;;5.60;;
42144;SDS011;27813;43.516;11.890;2024-03-08T20:40:48;14.90;;;10.93;;
42144;SDS011;27813;43.516;11.890;2024-03-08T20:44:54;11.68;;;6.60;;
42144;SDS011;27813;43.516;11.890;2024-03-08T20:48:58;10.02;;;6.15;;
42144;SDS011;27813;43.516;11.890;2024-03-08T20:53:04;9.27;;;6.28;;
42144;SDS011;27813;43.516;11.890;2024-03-08T20:57:13;7.32;;;5.38;;
42144;SDS011;27813;43.516;11.890;2024-03-08T21:01:17;7.05;;;3.45;;
42144;SDS011;27813;43.516;11.890;2024-03-08T21:05:23;4.90;;;3.38;;
42144;SDS011;27813;43.516;11.890;2024-03-08T21:09:28;7.55;;;3.83;;
42144;SDS011;27813;43.516;11.890;2024-03-08T21:13:35;4.40;;;2.70;;
42144;SDS011;27813;43.516;11.890;2024-03-08T21:17:39;4.57;;;2.88;;
42144;SDS011;27813;43.516;11.890;2024-03-08T21:21:45;6.47;;;2.65;;
42144;SDS011;27813;43.516;11.890;2024-03-08T21:25:51;5.00;;;2.80;;
42144;SDS011;27813;43.516;11.890;2024-03-08T21:34:02;10.95;;;3.88;;
42144;SDS011;27813;43.516;11.890;2024-03-08T21:38:07;10.32;;;4.47;;
42144;SDS011;27813;43.516;11.890;2024-03-08T21:42:13;8.25;;;3.50;;
42144;SDS011;27813;43.516;11.890;2024-03-08T21:46:17;4.55;;;3.00;;
42144;SDS011;27813;43.516;11.890;2024-03-08T21:50:22;3.60;;;2.55;;
42144;SDS011;27813;43.516;11.890;2024-03-08T21:54:27;14.32;;;3.38;;
42144;SDS011;27813;43.516;11.890;2024-03-08T21:58:39;5.40;;;3.13;;
42144;SDS011;27813;43.516;11.890;2024-03-08T22:02:46;5.63;;;3.28;;
42144;SDS011;27813;43.516;11.890;2024-03-08T22:06:50;4.65;;;2.65;;
42144;SDS011;27813;43.516;11.890;2024-03-08T22:10:57;6.18;;;2.90;;
42144;SDS011;27813;43.516;11.890;2024-03-08T22:15:02;5.18;;;3.10;;
42144;SDS011;27813;43.516;11.890;2024-03-08T22:19:07;3.22;;;2.42;;
42144;SDS011;27813;43.516;11.890;2024-03-08T22:23:15;6.97;;;3.70;;
42144;SDS011;27813;43.516;11.890;2024-03-08T22:27:21;3.97;;;1.90;;
42144;SDS011;27813;43.516;11.890;2024-03-08T22:31:28;7.30;;;3.10;;
42144;SDS011;27813;43.516;11.890;2024-03-08T22:35:36;2.83;;;2.17;;
42144;SDS011;27813;43.516;11.890;2024-03-08T22:39:41;5.55;;;2.13;;
42144;SDS011;27813;43.516;11.890;2024-03-08T22:43:46;5.57;;;2.67;;
42144;SDS011;27813;43.516;11.890;2024-03-08T22:47:50;14.52;;;3.58;;
42144;SDS011;27813;43.516;11.890;2024-03-08T22:51:54;4.75;;;3.03;;
42144;SDS011;27813;43.516;11.890;2024-03-08T22:55:59;9.27;;;4.03;;
42144;SDS011;27813;43.516;11.890;2024-03-08T23:00:03;6.75;;;4.63;;
42144;SDS011;27813;43.516;11.890;2024-03-08T23:04:32;10.18;;;5.00;;
42144;SDS011;27813;43.516;11.890;2024-03-08T23:12:48;7.40;;;4.72;;
42144;SDS011;27813;43.516;11.890;2024-03-08T23:16:57;6.72;;;4.97;;
42144;SDS011;27813;43.516;11.890;2024-03-08T23:21:03;7.90;;;4.47;;
42144;SDS011;27813;43.516;11.890;2024-03-08T23:25:14;8.73;;;4.90;;
42144;SDS011;27813;43.516;11.890;2024-03-08T23:29:19;8.35;;;5.35;;
42144;SDS011;27813;43.516;11.890;2024-03-08T23:33:25;9.77;;;5.47;;
42144;SDS011;27813;43.516;11.890;2024-03-08T23:37:29;6.35;;;5.30;;
42144;SDS011;27813;43.516;11.890;2024-03-08T23:41:33;7.53;;;5.00;;
42144;SDS011;27813;43.516;11.890;2024-03-08T23:45:37;7.82;;;5.07;;
42144;SDS011;27813;43.516;11.890;2024-03-08T23:49:42;8.30;;;6.20;;
42144;SDS011;27813;43.516;11.890;2024-03-08T23:53:47;8.68;;;5.80;;
42144;SDS011;27813;43.516;11.890;2024-03-08T23:57:51;9.65;;;5.82;;
